sensor_id;sensor_type;location;lat;lon;timestamp;temperature;humidity
17341;DHT22;8788;49.930;8.660;2023-05-10T00:00:47;15.30;99.90
17341;DHT22;8788;49.930;8.660;2023-05-10T00:03:14;15.30;99.90
17341;DHT22;8788;49.930;8.660;2023-05-10T00:05:41;15.20;99.90
17341;DHT22;8788;49.930;8.660;2023-05-10T00:08:10;15.30;99.90
17341;DHT22;8788;49.930;8.660;2023-05-10T00:10:37;15.30;99.90
17341;DHT22;8788;49.930;8.660;2023-05-10T00:13:04;15.40;99.90
17341;DHT22;8788;49.930;8.660;2023-05-10T00:15:31;15.30;99.90
17341;DHT22;8788;49.930;8.660;2023-05-10T00:17:58;15.30;99.90
17341;DHT22;8788;49.930;8.660;2023-05-10T00:20:25;15.30;99.90
17341;DHT22;8788;49.930;8.660;2023-05-10T00:22:52;15.30;99.90
17341;DHT22;8788;49.930;8.660;2023-05-10T00:25:21;15.20;99.90
17341;DHT22;8788;49.930;8.660;2023-05-10T00:27:48;15.20;99.90
17341;DHT22;8788;49.930;8.660;2023-05-10T00:30:16;15.20;99.90
17341;DHT22;8788;49.930;8.660;2023-05-10T00:32:44;15.30;99.90
17341;DHT22;8788;49.930;8.660;2023-05-10T00:35:11;15.30;99.90
17341;DHT22;8788;49.930;8.660;2023-05-10T00:37:38;15.30;99.90
17341;DHT22;8788;49.930;8.660;2023-05-10T00:40:06;15.30;99.90
17341;DHT22;8788;49.930;8.660;2023-05-10T00:42:35;15.30;99.90
17341;DHT22;8788;49.930;8.660;2023-05-10T00:45:02;15.30;99.90
17341;DHT22;8788;49.930;8.660;2023-05-10T00:47:29;15.20;99.90
17341;DHT22;8788;49.930;8.660;2023-05-10T00:49:57;15.20;99.90
17341;DHT22;8788;49.930;8.660;2023-05-10T00:52:25;15.20;99.90
17341;DHT22;8788;49.930;8.660;2023-05-10T00:54:52;15.10;99.90
17341;DHT22;8788;49.930;8.660;2023-05-10T00:57:20;15.20;99.90
17341;DHT22;8788;49.930;8.660;2023-05-10T00:59:49;15.20;99.90
17341;DHT22;8788;49.930;8.660;2023-05-10T01:02:16;15.20;99.90
17341;DHT22;8788;49.930;8.660;2023-05-10T01:04:43;15.20;99.90
17341;DHT22;8788;49.930;8.660;2023-05-10T01:07:10;15.20;99.90
17341;DHT22;8788;49.930;8.660;2023-05-10T01:09:37;15.20;99.90
17341;DHT22;8788;49.930;8.660;2023-05-10T01:12:05;15.20;99.90
17341;DHT22;8788;49.930;8.660;2023-05-10T01:14:33;15.30;99.90
17341;DHT22;8788;49.930;8.660;2023-05-10T01:17:04;15.30;99.90
17341;DHT22;8788;49.930;8.660;2023-05-10T01:19:34;15.20;99.90
17341;DHT22;8788;49.930;8.660;2023-05-10T01:22:08;15.20;99.90
17341;DHT22;8788;49.930;8.660;2023-05-10T01:27:57;15.20;99.90
17341;DHT22;8788;49.930;8.660;2023-05-10T01:31:01;15.20;99.90
17341;DHT22;8788;49.930;8.660;2023-05-10T01:33:35;15.20;99.90
17341;DHT22;8788;49.930;8.660;2023-05-10T01:36:05;15.10;99.90
17341;DHT22;8788;49.930;8.660;2023-05-10T01:38:41;15.20;99.90
17341;DHT22;8788;49.930;8.660;2023-05-10T01:41:14;15.20;99.90
17341;DHT22;8788;49.930;8.660;2023-05-10T01:43:51;15.20;99.90
17341;DHT22;8788;49.930;8.660;2023-05-10T01:46:24;15.10;99.90
17341;DHT22;8788;49.930;8.660;2023-05-10T01:48:57;15.10;99.90
17341;DHT22;8788;49.930;8.660;2023-05-10T01:51:31;15.00;99.90
17341;DHT22;8788;49.930;8.660;2023-05-10T01:54:02;15.00;99.90
17341;DHT22;8788;49.930;8.660;2023-05-10T01:56:31;15.00;99.90
17341;DHT22;8788;49.930;8.660;2023-05-10T01:59:00;15.00;99.90
17341;DHT22;8788;49.930;8.660;2023-05-10T02:01:33;15.00;99.90
17341;DHT22;8788;49.930;8.660;2023-05-10T02:04:05;15.10;99.90
17341;DHT22;8788;49.930;8.660;2023-05-10T02:06:38;15.10;99.90
17341;DHT22;8788;49.930;8.660;2023-05-10T02:09:11;15.10;99.90
17341;DHT22;8788;49.930;8.660;2023-05-10T02:11:48;15.10;99.90
17341;DHT22;8788;49.930;8.660;2023-05-10T02:14:16;15.10;99.90
17341;DHT22;8788;49.930;8.660;2023-05-10T02:16:46;15.00;99.90
17341;DHT22;8788;49.930;8.660;2023-05-10T02:19:15;15.00;99.90
17341;DHT22;8788;49.930;8.660;2023-05-10T02:21:44;15.10;99.90
17341;DHT22;8788;49.930;8.660;2023-05-10T02:24:13;15.00;99.90
17341;DHT22;8788;49.930;8.660;2023-05-10T02:26:42;15.00;99.90
17341;DHT22;8788;49.930;8.660;2023-05-10T02:29:11;15.00;99.90
17341;DHT22;8788;49.930;8.660;2023-05-10T02:31:39;15.00;99.90
17341;DHT22;8788;49.930;8.660;2023-05-10T02:34:10;15.00;99.90
17341;DHT22;8788;49.930;8.660;2023-05-10T02:36:40;14.90;99.90
17341;DHT22;8788;49.930;8.660;2023-05-10T02:39:09;14.90;99.90
17341;DHT22;8788;49.930;8.660;2023-05-10T02:41:39;14.90;99.90
17341;DHT22;8788;49.930;8.660;2023-05-10T02:44:07;14.90;99.90
17341;DHT22;8788;49.930;8.660;2023-05-10T02:46:36;14.90;99.90
17341;DHT22;8788;49.930;8.660;2023-05-10T02:49:03;14.90;99.90
17341;DHT22;8788;49.930;8.660;2023-05-10T02:51:32;14.90;99.90
17341;DHT22;8788;49.930;8.660;2023-05-10T02:54:07;15.00;99.90
17341;DHT22;8788;49.930;8.660;2023-05-10T02:56:36;15.00;99.90
17341;DHT22;8788;49.930;8.660;2023-05-10T02:59:05;15.00;99.90
17341;DHT22;8788;49.930;8.660;2023-05-10T03:01:32;15.00;99.90
17341;DHT22;8788;49.930;8.660;2023-05-10T03:03:59;14.90;99.90
17341;DHT22;8788;49.930;8.660;2023-05-10T03:06:26;15.00;99.90
17341;DHT22;8788;49.930;8.660;2023-05-10T03:08:54;15.00;99.90
17341;DHT22;8788;49.930;8.660;2023-05-10T03:11:37;14.90;99.90
17341;DHT22;8788;49.930;8.660;2023-05-10T03:14:21;14.90;99.90
17341;DHT22;8788;49.930;8.660;2023-05-10T03:16:57;14.90;99.90
17341;DHT22;8788;49.930;8.660;2023-05-10T03:19:30;14.90;99.90
17341;DHT22;8788;49.930;8.660;2023-05-10T03:21:59;14.80;99.90
17341;DHT22;8788;49.930;8.660;2023-05-10T03:24:34;14.90;99.90
17341;DHT22;8788;49.930;8.660;2023-05-10T03:27:04;14.90;99.90
17341;DHT22;8788;49.930;8.660;2023-05-10T03:29:32;14.90;99.90
17341;DHT22;8788;49.930;8.660;2023-05-10T03:32:00;14.80;99.90
17341;DHT22;8788;49.930;8.660;2023-05-10T03:34:30;14.80;99.90
17341;DHT22;8788;49.930;8.660;2023-05-10T03:36:57;14.80;99.90
17341;DHT22;8788;49.930;8.660;2023-05-10T03:39:27;14.70;99.90
17341;DHT22;8788;49.930;8.660;2023-05-10T03:41:57;14.70;99.90
17341;DHT22;8788;49.930;8.660;2023-05-10T03:44:25;14.80;99.90
17341;DHT22;8788;49.930;8.660;2023-05-10T03:46:52;14.80;99.90
17341;DHT22;8788;49.930;8.660;2023-05-10T03:49:20;14.90;99.90
17341;DHT22;8788;49.930;8.660;2023-05-10T03:51:47;14.90;99.90
17341;DHT22;8788;49.930;8.660;2023-05-10T03:54:15;14.90;99.90
17341;DHT22;8788;49.930;8.660;2023-05-10T03:56:42;15.00;99.90
17341;DHT22;8788;49.930;8.660;2023-05-10T03:59:09;15.00;99.90
17341;DHT22;8788;49.930;8.660;2023-05-10T04:01:37;14.90;99.90
17341;DHT22;8788;49.930;8.660;2023-05-10T04:04:05;14.90;99.90
17341;DHT22;8788;49.930;8.660;2023-05-10T04:06:32;14.90;99.90
17341;DHT22;8788;49.930;8.660;2023-05-10T04:08:59;14.90;99.90
17341;DHT22;8788;49.930;8.660;2023-05-10T04:11:29;15.00;99.90
17341;DHT22;8788;49.930;8.660;2023-05-10T04:13:57;15.00;99.90
17341;DHT22;8788;49.930;8.660;2023-05-10T04:16:24;15.00;99.90
17341;DHT22;8788;49.930;8.660;2023-05-10T04:18:52;15.00;99.90
17341;DHT22;8788;49.930;8.660;2023-05-10T04:21:19;15.00;99.90
17341;DHT22;8788;49.930;8.660;2023-05-10T04:23:47;15.00;99.90
17341;DHT22;8788;49.930;8.660;2023-05-10T04:26:14;14.90;99.90
17341;DHT22;8788;49.930;8.660;2023-05-10T04:28:41;15.00;99.90
17341;DHT22;8788;49.930;8.660;2023-05-10T04:31:09;15.00;99.90
17341;DHT22;8788;49.930;8.660;2023-05-10T04:33:37;15.00;99.90
17341;DHT22;8788;49.930;8.660;2023-05-10T04:36:06;15.10;99.90
17341;DHT22;8788;49.930;8.660;2023-05-10T04:38:33;15.10;99.90
17341;DHT22;8788;49.930;8.660;2023-05-10T04:41:07;15.20;99.90
17341;DHT22;8788;49.930;8.660;2023-05-10T04:43:34;15.20;99.90
17341;DHT22;8788;49.930;8.660;2023-05-10T04:46:02;15.20;99.90
17341;DHT22;8788;49.930;8.660;2023-05-10T04:48:29;15.10;99.90
17341;DHT22;8788;49.930;8.660;2023-05-10T04:50:56;15.00;99.90
17341;DHT22;8788;49.930;8.660;2023-05-10T04:53:24;15.00;99.90
17341;DHT22;8788;49.930;8.660;2023-05-10T04:55:51;15.10;99.90
17341;DHT22;8788;49.930;8.660;2023-05-10T04:58:19;15.10;99.90
17341;DHT22;8788;49.930;8.660;2023-05-10T05:00:46;15.10;99.90
17341;DHT22;8788;49.930;8.660;2023-05-10T05:03:13;15.00;99.90
17341;DHT22;8788;49.930;8.660;2023-05-10T05:05:40;15.00;99.90
17341;DHT22;8788;49.930;8.660;2023-05-10T05:08:07;15.00;99.90
17341;DHT22;8788;49.930;8.660;2023-05-10T05:10:35;15.10;99.90
17341;DHT22;8788;49.930;8.660;2023-05-10T05:13:03;15.10;99.90
17341;DHT22;8788;49.930;8.660;2023-05-10T05:15:30;15.00;99.90
17341;DHT22;8788;49.930;8.660;2023-05-10T05:17:57;15.00;99.90
17341;DHT22;8788;49.930;8.660;2023-05-10T05:20:24;15.00;99.90
17341;DHT22;8788;49.930;8.660;2023-05-10T05:22:51;15.00;99.90
17341;DHT22;8788;49.930;8.660;2023-05-10T05:25:18;15.00;99.90
17341;DHT22;8788;49.930;8.660;2023-05-10T05:27:46;15.00;99.90
17341;DHT22;8788;49.930;8.660;2023-05-10T05:30:13;15.10;99.90
17341;DHT22;8788;49.930;8.660;2023-05-10T05:32:40;15.10;99.90
17341;DHT22;8788;49.930;8.660;2023-05-10T05:35:08;15.20;99.90
17341;DHT22;8788;49.930;8.660;2023-05-10T05:37:35;15.20;99.90
17341;DHT22;8788;49.930;8.660;2023-05-10T05:40:03;15.10;99.90
17341;DHT22;8788;49.930;8.660;2023-05-10T05:42:31;15.10;99.90
17341;DHT22;8788;49.930;8.660;2023-05-10T05:44:59;15.10;99.90
17341;DHT22;8788;49.930;8.660;2023-05-10T05:47:26;15.10;99.90
17341;DHT22;8788;49.930;8.660;2023-05-10T05:49:53;15.10;99.90
17341;DHT22;8788;49.930;8.660;2023-05-10T05:52:20;15.10;99.90
17341;DHT22;8788;49.930;8.660;2023-05-10T05:54:48;15.20;99.90
17341;DHT22;8788;49.930;8.660;2023-05-10T05:57:15;15.20;99.90
17341;DHT22;8788;49.930;8.660;2023-05-10T05:59:42;15.30;99.90
17341;DHT22;8788;49.930;8.660;2023-05-10T06:02:11;15.40;99.90
17341;DHT22;8788;49.930;8.660;2023-05-10T06:04:38;15.50;99.90
17341;DHT22;8788;49.930;8.660;2023-05-10T06:07:05;15.60;99.90
17341;DHT22;8788;49.930;8.660;2023-05-10T06:09:32;15.60;99.90
17341;DHT22;8788;49.930;8.660;2023-05-10T06:11:59;15.60;99.90
17341;DHT22;8788;49.930;8.660;2023-05-10T06:14:27;15.50;99.90
17341;DHT22;8788;49.930;8.660;2023-05-10T06:16:54;15.50;99.90
17341;DHT22;8788;49.930;8.660;2023-05-10T06:19:22;15.50;99.90
17341;DHT22;8788;49.930;8.660;2023-05-10T06:21:49;15.50;99.90
17341;DHT22;8788;49.930;8.660;2023-05-10T06:24:16;15.40;99.90
17341;DHT22;8788;49.930;8.660;2023-05-10T06:26:43;15.50;99.90
17341;DHT22;8788;49.930;8.660;2023-05-10T06:29:10;15.60;99.90
17341;DHT22;8788;49.930;8.660;2023-05-10T06:31:37;15.60;99.90
17341;DHT22;8788;49.930;8.660;2023-05-10T06:34:05;15.70;99.90
17341;DHT22;8788;49.930;8.660;2023-05-10T06:36:35;15.70;99.90
17341;DHT22;8788;49.930;8.660;2023-05-10T06:39:02;15.80;99.90
17341;DHT22;8788;49.930;8.660;2023-05-10T06:41:29;15.80;99.90
17341;DHT22;8788;49.930;8.660;2023-05-10T06:43:56;15.70;99.90
17341;DHT22;8788;49.930;8.660;2023-05-10T06:46:23;15.60;99.90
17341;DHT22;8788;49.930;8.660;2023-05-10T06:48:50;15.60;99.90
17341;DHT22;8788;49.930;8.660;2023-05-10T06:51:17;15.60;99.90
17341;DHT22;8788;49.930;8.660;2023-05-10T06:53:46;15.70;99.90
17341;DHT22;8788;49.930;8.660;2023-05-10T06:56:13;15.80;99.90
17341;DHT22;8788;49.930;8.660;2023-05-10T06:58:40;15.80;99.90
17341;DHT22;8788;49.930;8.660;2023-05-10T07:01:07;15.90;99.90
17341;DHT22;8788;49.930;8.660;2023-05-10T07:03:34;15.90;99.90
17341;DHT22;8788;49.930;8.660;2023-05-10T07:06:01;15.90;99.90
17341;DHT22;8788;49.930;8.660;2023-05-10T07:08:30;15.90;99.90
17341;DHT22;8788;49.930;8.660;2023-05-10T07:11:02;15.90;99.90
17341;DHT22;8788;49.930;8.660;2023-05-10T07:13:30;15.90;99.90
17341;DHT22;8788;49.930;8.660;2023-05-10T07:15:58;15.90;99.90
17341;DHT22;8788;49.930;8.660;2023-05-10T07:18:25;16.00;99.90
17341;DHT22;8788;49.930;8.660;2023-05-10T07:20:52;16.10;99.90
17341;DHT22;8788;49.930;8.660;2023-05-10T07:23:19;16.20;99.90
17341;DHT22;8788;49.930;8.660;2023-05-10T07:25:47;16.30;99.90
17341;DHT22;8788;49.930;8.660;2023-05-10T07:28:15;16.40;99.90
17341;DHT22;8788;49.930;8.660;2023-05-10T07:30:43;16.40;99.90
17341;DHT22;8788;49.930;8.660;2023-05-10T07:33:10;16.40;99.90
17341;DHT22;8788;49.930;8.660;2023-05-10T07:35:38;16.40;99.90
17341;DHT22;8788;49.930;8.660;2023-05-10T07:38:05;16.40;99.90
17341;DHT22;8788;49.930;8.660;2023-05-10T07:40:32;16.50;99.90
17341;DHT22;8788;49.930;8.660;2023-05-10T07:42:59;16.40;99.90
17341;DHT22;8788;49.930;8.660;2023-05-10T07:45:28;16.50;99.90
17341;DHT22;8788;49.930;8.660;2023-05-10T07:47:55;16.60;99.90
17341;DHT22;8788;49.930;8.660;2023-05-10T07:50:22;16.60;99.90
17341;DHT22;8788;49.930;8.660;2023-05-10T07:52:49;16.70;99.90
17341;DHT22;8788;49.930;8.660;2023-05-10T07:55:18;16.70;99.90
17341;DHT22;8788;49.930;8.660;2023-05-10T07:57:45;16.70;99.90
17341;DHT22;8788;49.930;8.660;2023-05-10T08:00:13;16.70;99.90
17341;DHT22;8788;49.930;8.660;2023-05-10T08:02:44;16.70;99.90
17341;DHT22;8788;49.930;8.660;2023-05-10T08:05:11;16.80;99.90
17341;DHT22;8788;49.930;8.660;2023-05-10T08:07:39;16.80;99.90
17341;DHT22;8788;49.930;8.660;2023-05-10T08:10:08;16.80;99.90
17341;DHT22;8788;49.930;8.660;2023-05-10T08:12:35;16.90;99.90
17341;DHT22;8788;49.930;8.660;2023-05-10T08:15:02;16.80;99.90
17341;DHT22;8788;49.930;8.660;2023-05-10T08:17:30;17.00;99.90
17341;DHT22;8788;49.930;8.660;2023-05-10T08:19:58;17.00;99.90
17341;DHT22;8788;49.930;8.660;2023-05-10T08:22:25;17.00;99.90
17341;DHT22;8788;49.930;8.660;2023-05-10T08:24:53;17.00;99.90
17341;DHT22;8788;49.930;8.660;2023-05-10T08:27:20;16.90;99.90
17341;DHT22;8788;49.930;8.660;2023-05-10T08:29:47;16.90;99.90
17341;DHT22;8788;49.930;8.660;2023-05-10T08:32:14;16.90;99.90
17341;DHT22;8788;49.930;8.660;2023-05-10T08:34:41;16.90;99.90
17341;DHT22;8788;49.930;8.660;2023-05-10T08:37:09;16.90;99.90
17341;DHT22;8788;49.930;8.660;2023-05-10T08:39:38;16.90;99.90
17341;DHT22;8788;49.930;8.660;2023-05-10T08:42:06;16.90;99.90
17341;DHT22;8788;49.930;8.660;2023-05-10T08:44:35;16.80;99.90
17341;DHT22;8788;49.930;8.660;2023-05-10T08:47:05;16.70;99.90
17341;DHT22;8788;49.930;8.660;2023-05-10T08:49:33;16.60;99.90
17341;DHT22;8788;49.930;8.660;2023-05-10T08:52:03;16.50;99.90
17341;DHT22;8788;49.930;8.660;2023-05-10T08:54:33;16.50;99.90
17341;DHT22;8788;49.930;8.660;2023-05-10T08:57:00;16.60;99.90
17341;DHT22;8788;49.930;8.660;2023-05-10T08:59:28;16.60;99.90
17341;DHT22;8788;49.930;8.660;2023-05-10T09:01:57;16.60;99.90
17341;DHT22;8788;49.930;8.660;2023-05-10T09:04:25;16.50;99.90
17341;DHT22;8788;49.930;8.660;2023-05-10T09:06:52;16.60;99.90
17341;DHT22;8788;49.930;8.660;2023-05-10T09:09:20;16.70;99.90
17341;DHT22;8788;49.930;8.660;2023-05-10T09:11:49;16.70;99.90
17341;DHT22;8788;49.930;8.660;2023-05-10T09:14:17;16.80;99.90
17341;DHT22;8788;49.930;8.660;2023-05-10T09:16:44;16.80;99.90
17341;DHT22;8788;49.930;8.660;2023-05-10T09:19:12;16.80;99.90
17341;DHT22;8788;49.930;8.660;2023-05-10T09:21:39;16.80;99.90
17341;DHT22;8788;49.930;8.660;2023-05-10T09:24:07;16.70;99.90
17341;DHT22;8788;49.930;8.660;2023-05-10T09:26:35;16.60;99.90
17341;DHT22;8788;49.930;8.660;2023-05-10T09:29:03;16.60;99.90
17341;DHT22;8788;49.930;8.660;2023-05-10T09:31:45;16.60;99.90
17341;DHT22;8788;49.930;8.660;2023-05-10T09:34:16;16.40;99.90
17341;DHT22;8788;49.930;8.660;2023-05-10T09:36:54;16.50;99.90
17341;DHT22;8788;49.930;8.660;2023-05-10T09:39:30;16.50;99.90
17341;DHT22;8788;49.930;8.660;2023-05-10T09:41:58;16.60;99.90
17341;DHT22;8788;49.930;8.660;2023-05-10T09:44:27;16.60;99.90
17341;DHT22;8788;49.930;8.660;2023-05-10T09:46:54;16.70;99.90
17341;DHT22;8788;49.930;8.660;2023-05-10T09:49:22;16.70;99.90
17341;DHT22;8788;49.930;8.660;2023-05-10T09:52:00;16.70;99.90
17341;DHT22;8788;49.930;8.660;2023-05-10T09:54:28;16.70;99.90
17341;DHT22;8788;49.930;8.660;2023-05-10T09:56:55;16.50;99.90
17341;DHT22;8788;49.930;8.660;2023-05-10T09:59:25;16.40;99.90
17341;DHT22;8788;49.930;8.660;2023-05-10T10:01:56;16.40;99.90
17341;DHT22;8788;49.930;8.660;2023-05-10T10:04:23;16.40;99.90
17341;DHT22;8788;49.930;8.660;2023-05-10T10:07:01;16.30;99.90
17341;DHT22;8788;49.930;8.660;2023-05-10T10:09:28;16.40;99.90
17341;DHT22;8788;49.930;8.660;2023-05-10T10:11:55;16.30;99.90
17341;DHT22;8788;49.930;8.660;2023-05-10T10:14:23;16.40;99.90
17341;DHT22;8788;49.930;8.660;2023-05-10T10:16:51;16.40;99.90
17341;DHT22;8788;49.930;8.660;2023-05-10T10:19:20;16.40;99.90
17341;DHT22;8788;49.930;8.660;2023-05-10T10:21:47;16.50;99.90
17341;DHT22;8788;49.930;8.660;2023-05-10T10:24:15;16.60;99.90
17341;DHT22;8788;49.930;8.660;2023-05-10T10:26:42;16.80;99.90
17341;DHT22;8788;49.930;8.660;2023-05-10T10:29:20;17.00;99.90
17341;DHT22;8788;49.930;8.660;2023-05-10T10:32:07;17.20;99.90
17341;DHT22;8788;49.930;8.660;2023-05-10T10:34:39;17.30;99.90
17341;DHT22;8788;49.930;8.660;2023-05-10T10:37:06;17.40;99.90
17341;DHT22;8788;49.930;8.660;2023-05-10T10:39:34;17.60;99.90
17341;DHT22;8788;49.930;8.660;2023-05-10T10:42:03;17.60;99.90
17341;DHT22;8788;49.930;8.660;2023-05-10T10:44:36;17.60;99.90
17341;DHT22;8788;49.930;8.660;2023-05-10T10:47:06;17.60;99.90
17341;DHT22;8788;49.930;8.660;2023-05-10T10:49:48;17.60;99.90
17341;DHT22;8788;49.930;8.660;2023-05-10T10:52:25;17.40;99.90
17341;DHT22;8788;49.930;8.660;2023-05-10T10:54:59;17.20;99.90
17341;DHT22;8788;49.930;8.660;2023-05-10T10:57:27;17.20;99.90
17341;DHT22;8788;49.930;8.660;2023-05-10T11:00:21;17.10;99.90
17341;DHT22;8788;49.930;8.660;2023-05-10T11:02:50;17.10;99.90
17341;DHT22;8788;49.930;8.660;2023-05-10T11:05:41;16.90;99.90
17341;DHT22;8788;49.930;8.660;2023-05-10T11:08:11;16.70;99.90
17341;DHT22;8788;49.930;8.660;2023-05-10T11:10:38;16.50;99.90
17341;DHT22;8788;49.930;8.660;2023-05-10T11:13:07;16.40;99.90
17341;DHT22;8788;49.930;8.660;2023-05-10T11:15:36;16.30;99.90
17341;DHT22;8788;49.930;8.660;2023-05-10T11:18:19;16.30;99.90
17341;DHT22;8788;49.930;8.660;2023-05-10T11:20:52;16.40;99.90
17341;DHT22;8788;49.930;8.660;2023-05-10T11:23:19;16.30;99.90
17341;DHT22;8788;49.930;8.660;2023-05-10T11:25:48;16.40;99.90
17341;DHT22;8788;49.930;8.660;2023-05-10T11:28:17;16.50;99.90
17341;DHT22;8788;49.930;8.660;2023-05-10T11:30:45;16.60;99.90
17341;DHT22;8788;49.930;8.660;2023-05-10T11:33:16;16.70;99.90
17341;DHT22;8788;49.930;8.660;2023-05-10T11:35:45;16.90;99.90
17341;DHT22;8788;49.930;8.660;2023-05-10T11:38:14;17.00;99.90
17341;DHT22;8788;49.930;8.660;2023-05-10T11:40:41;17.00;99.90
17341;DHT22;8788;49.930;8.660;2023-05-10T11:43:09;17.10;99.90
17341;DHT22;8788;49.930;8.660;2023-05-10T11:45:37;17.30;99.90
17341;DHT22;8788;49.930;8.660;2023-05-10T11:48:04;17.40;99.90
17341;DHT22;8788;49.930;8.660;2023-05-10T11:50:31;17.70;99.90
17341;DHT22;8788;49.930;8.660;2023-05-10T11:52:59;17.80;99.90
17341;DHT22;8788;49.930;8.660;2023-05-10T11:55:27;17.90;99.90
17341;DHT22;8788;49.930;8.660;2023-05-10T11:58:00;18.10;99.90
17341;DHT22;8788;49.930;8.660;2023-05-10T12:00:28;18.20;99.90
17341;DHT22;8788;49.930;8.660;2023-05-10T12:02:56;18.40;99.90
17341;DHT22;8788;49.930;8.660;2023-05-10T12:05:23;18.70;99.90
17341;DHT22;8788;49.930;8.660;2023-05-10T12:07:51;18.80;99.90
17341;DHT22;8788;49.930;8.660;2023-05-10T12:10:26;18.80;99.90
17341;DHT22;8788;49.930;8.660;2023-05-10T12:12:53;18.90;99.90
17341;DHT22;8788;49.930;8.660;2023-05-10T12:15:21;19.00;99.90
17341;DHT22;8788;49.930;8.660;2023-05-10T12:17:50;19.10;99.90
17341;DHT22;8788;49.930;8.660;2023-05-10T12:20:18;19.10;99.90
17341;DHT22;8788;49.930;8.660;2023-05-10T12:22:47;19.20;99.90
17341;DHT22;8788;49.930;8.660;2023-05-10T12:25:14;19.20;99.90
17341;DHT22;8788;49.930;8.660;2023-05-10T12:27:49;19.10;99.90
17341;DHT22;8788;49.930;8.660;2023-05-10T12:30:21;19.10;99.90
17341;DHT22;8788;49.930;8.660;2023-05-10T12:32:49;19.10;99.90
17341;DHT22;8788;49.930;8.660;2023-05-10T12:35:17;19.20;99.90
17341;DHT22;8788;49.930;8.660;2023-05-10T12:37:46;19.30;99.90
17341;DHT22;8788;49.930;8.660;2023-05-10T12:40:13;19.50;99.90
17341;DHT22;8788;49.930;8.660;2023-05-10T12:42:41;19.60;99.90
17341;DHT22;8788;49.930;8.660;2023-05-10T12:45:10;19.50;99.90
17341;DHT22;8788;49.930;8.660;2023-05-10T12:47:37;19.50;99.90
17341;DHT22;8788;49.930;8.660;2023-05-10T12:50:05;19.50;99.90
17341;DHT22;8788;49.930;8.660;2023-05-10T12:52:33;19.60;99.90
17341;DHT22;8788;49.930;8.660;2023-05-10T12:55:00;19.90;99.90
17341;DHT22;8788;49.930;8.660;2023-05-10T12:57:28;20.00;99.90
17341;DHT22;8788;49.930;8.660;2023-05-10T12:59:56;20.30;99.90
17341;DHT22;8788;49.930;8.660;2023-05-10T13:02:24;20.60;99.90
17341;DHT22;8788;49.930;8.660;2023-05-10T13:04:52;20.50;99.90
17341;DHT22;8788;49.930;8.660;2023-05-10T13:07:19;20.40;99.90
17341;DHT22;8788;49.930;8.660;2023-05-10T13:09:46;20.40;99.90
17341;DHT22;8788;49.930;8.660;2023-05-10T13:12:13;20.30;99.90
17341;DHT22;8788;49.930;8.660;2023-05-10T13:14:40;20.20;99.90
17341;DHT22;8788;49.930;8.660;2023-05-10T13:17:07;20.20;99.90
17341;DHT22;8788;49.930;8.660;2023-05-10T13:19:36;20.10;99.90
17341;DHT22;8788;49.930;8.660;2023-05-10T13:22:03;20.00;99.90
17341;DHT22;8788;49.930;8.660;2023-05-10T13:24:30;19.90;99.90
17341;DHT22;8788;49.930;8.660;2023-05-10T13:26:57;19.80;99.90
17341;DHT22;8788;49.930;8.660;2023-05-10T13:29:24;19.70;99.90
17341;DHT22;8788;49.930;8.660;2023-05-10T13:31:51;19.60;99.90
17341;DHT22;8788;49.930;8.660;2023-05-10T13:34:18;19.50;99.90
17341;DHT22;8788;49.930;8.660;2023-05-10T13:36:48;19.50;99.90
17341;DHT22;8788;49.930;8.660;2023-05-10T13:39:15;19.40;99.90
17341;DHT22;8788;49.930;8.660;2023-05-10T13:41:42;19.30;99.90
17341;DHT22;8788;49.930;8.660;2023-05-10T13:44:12;19.20;99.90
17341;DHT22;8788;49.930;8.660;2023-05-10T13:46:39;19.20;99.90
17341;DHT22;8788;49.930;8.660;2023-05-10T13:49:06;19.20;99.90
17341;DHT22;8788;49.930;8.660;2023-05-10T13:51:33;19.40;99.90
17341;DHT22;8788;49.930;8.660;2023-05-10T13:54:02;19.50;99.90
17341;DHT22;8788;49.930;8.660;2023-05-10T13:56:29;19.50;99.90
17341;DHT22;8788;49.930;8.660;2023-05-10T13:58:57;19.60;99.90
17341;DHT22;8788;49.930;8.660;2023-05-10T14:01:24;19.70;99.90
17341;DHT22;8788;49.930;8.660;2023-05-10T14:03:51;19.80;99.90
17341;DHT22;8788;49.930;8.660;2023-05-10T14:06:18;19.90;99.90
17341;DHT22;8788;49.930;8.660;2023-05-10T14:08:45;19.70;99.90
17341;DHT22;8788;49.930;8.660;2023-05-10T14:11:14;19.60;99.90
17341;DHT22;8788;49.930;8.660;2023-05-10T14:13:41;19.60;99.90
17341;DHT22;8788;49.930;8.660;2023-05-10T14:16:08;19.60;99.90
17341;DHT22;8788;49.930;8.660;2023-05-10T14:18:35;19.70;99.90
17341;DHT22;8788;49.930;8.660;2023-05-10T14:21:02;19.80;99.90
17341;DHT22;8788;49.930;8.660;2023-05-10T14:23:30;19.80;99.90
17341;DHT22;8788;49.930;8.660;2023-05-10T14:25:57;19.70;99.90
17341;DHT22;8788;49.930;8.660;2023-05-10T14:28:25;19.70;99.90
17341;DHT22;8788;49.930;8.660;2023-05-10T14:30:53;19.50;99.90
17341;DHT22;8788;49.930;8.660;2023-05-10T14:33:20;19.50;99.90
17341;DHT22;8788;49.930;8.660;2023-05-10T14:35:47;19.40;99.90
17341;DHT22;8788;49.930;8.660;2023-05-10T14:38:15;19.30;99.90
17341;DHT22;8788;49.930;8.660;2023-05-10T14:40:42;19.30;99.90
17341;DHT22;8788;49.930;8.660;2023-05-10T14:43:09;19.30;99.90
17341;DHT22;8788;49.930;8.660;2023-05-10T14:45:37;19.10;99.90
17341;DHT22;8788;49.930;8.660;2023-05-10T14:48:05;19.20;99.90
17341;DHT22;8788;49.930;8.660;2023-05-10T14:50:32;19.20;99.90
17341;DHT22;8788;49.930;8.660;2023-05-10T14:52:59;19.30;99.90
17341;DHT22;8788;49.930;8.660;2023-05-10T14:55:26;19.40;99.90
17341;DHT22;8788;49.930;8.660;2023-05-10T14:57:53;19.50;99.90
17341;DHT22;8788;49.930;8.660;2023-05-10T15:00:21;19.50;99.90
17341;DHT22;8788;49.930;8.660;2023-05-10T15:02:49;19.50;99.90
17341;DHT22;8788;49.930;8.660;2023-05-10T15:05:16;19.50;99.90
17341;DHT22;8788;49.930;8.660;2023-05-10T15:07:43;19.60;99.90
17341;DHT22;8788;49.930;8.660;2023-05-10T15:10:11;19.70;99.90
17341;DHT22;8788;49.930;8.660;2023-05-10T15:12:38;19.70;99.90
17341;DHT22;8788;49.930;8.660;2023-05-10T15:15:06;19.90;99.90
17341;DHT22;8788;49.930;8.660;2023-05-10T15:17:34;20.10;99.90
17341;DHT22;8788;49.930;8.660;2023-05-10T15:20:03;20.00;99.90
17341;DHT22;8788;49.930;8.660;2023-05-10T15:22:30;20.00;99.90
17341;DHT22;8788;49.930;8.660;2023-05-10T15:24:58;19.80;99.90
17341;DHT22;8788;49.930;8.660;2023-05-10T15:27:25;19.80;99.90
17341;DHT22;8788;49.930;8.660;2023-05-10T15:29:52;19.70;99.90
17341;DHT22;8788;49.930;8.660;2023-05-10T15:32:19;19.60;99.90
17341;DHT22;8788;49.930;8.660;2023-05-10T15:34:47;19.50;99.90
17341;DHT22;8788;49.930;8.660;2023-05-10T15:37:15;19.50;99.90
17341;DHT22;8788;49.930;8.660;2023-05-10T15:39:42;19.40;99.90
17341;DHT22;8788;49.930;8.660;2023-05-10T15:42:09;19.30;99.90
17341;DHT22;8788;49.930;8.660;2023-05-10T15:44:36;19.20;99.90
17341;DHT22;8788;49.930;8.660;2023-05-10T15:47:04;19.20;99.90
17341;DHT22;8788;49.930;8.660;2023-05-10T15:49:32;19.30;99.90
17341;DHT22;8788;49.930;8.660;2023-05-10T15:51:59;19.30;99.90
17341;DHT22;8788;49.930;8.660;2023-05-10T15:54:28;19.30;99.90
17341;DHT22;8788;49.930;8.660;2023-05-10T15:56:55;19.30;99.90